Time;durP1;ratioP1;P1;durP2;ratioP2;P2;SDS_P1;SDS_P2;PMS_P1;PMS_P2;Temp;Humidity;BMP_temperature;BMP_pressure;BME280_temperature;BME280_humidity;BME280_pressure;Samples;Min_cycle;Max_cycle;Signal;HPM_P1;HPM_P2
2021/11/22 00:02:03;;;;;;;44.47;41.57;;;;;;;5.38;100.00;102619.66;2007602;71;32850;-71
2021/11/22 00:07:47;;;;;;;45.70;42.90;;;;;;;5.36;100.00;102629.50;2015060;71;32850;-72
2021/11/22 00:13:33;;;;;;;46.30;43.23;;;;;;;5.46;100.00;102621.69;2014927;71;32935;-71
2021/11/22 00:19:16;;;;;;;44.90;42.10;;;;;;;5.54;100.00;102631.67;2015091;71;32939;-72
2021/11/22 00:25:01;;;;;;;43.73;40.93;;;;;;;5.63;100.00;102632.33;2009580;70;32954;-73
2021/11/22 00:30:45;;;;;;;47.27;44.47;;;;;;;5.69;100.00;102632.33;2000813;71;32789;-74
2021/11/22 00:36:29;;;;;;;47.87;45.07;;;;;;;5.63;100.00;102643.35;2016625;71;32923;-72
2021/11/22 00:42:13;;;;;;;46.10;43.20;;;;;;;5.69;100.00;102654.94;2006230;71;33318;-71
2021/11/22 00:47:58;;;;;;;46.33;43.63;;;;;;;5.56;100.00;102650.24;2009393;71;33352;-72
2021/11/22 00:53:43;;;;;;;47.07;44.13;;;;;;;5.59;100.00;102655.85;2013291;71;33323;-72
2021/11/22 00:59:27;;;;;;;48.20;45.20;;;;;;;5.62;100.00;102665.08;2011617;71;32802;-71
2021/11/22 01:05:12;;;;;;;45.37;42.77;;;;;;;5.65;100.00;102672.95;1998537;71;32820;-71
2021/11/22 01:10:56;;;;;;;47.03;44.03;;;;;;;5.58;100.00;102680.34;2013326;71;32842;-71
2021/11/22 01:16:43;;;;;;;46.93;43.90;;;;;;;5.64;100.00;102679.52;2016771;71;32899;-72
2021/11/22 01:22:27;;;;;;;46.37;43.47;;;;;;;5.66;100.00;102688.41;2011685;71;32846;-72
2021/11/22 01:28:12;;;;;;;48.60;45.47;;;;;;;5.69;100.00;102689.40;2012987;71;32960;-70
2021/11/22 01:33:57;;;;;;;46.67;43.57;;;;;;;5.57;100.00;102697.92;2004021;71;32845;-72
2021/11/22 01:39:41;;;;;;;46.63;43.67;;;;;;;5.36;100.00;102707.18;2000628;71;32777;-71
2021/11/22 01:45:26;;;;;;;46.80;43.80;;;;;;;5.42;100.00;102709.98;1995266;71;32763;-71
2021/11/22 01:51:10;;;;;;;46.27;43.07;;;;;;;5.38;100.00;102716.96;2008160;71;32792;-72
2021/11/22 01:56:54;;;;;;;45.67;42.90;;;;;;;5.53;100.00;102717.31;2015039;71;32844;-74
2021/11/22 02:02:38;;;;;;;48.40;45.23;;;;;;;5.50;100.00;102727.71;2004465;71;33314;-72
2021/11/22 02:08:24;;;;;;;44.90;41.97;;;;;;;5.59;100.00;102725.63;2015055;71;32853;-71
2021/11/22 02:14:09;;;;;;;45.90;42.80;;;;;;;5.48;100.00;102722.92;2004494;71;32779;-71
2021/11/22 02:19:58;;;;;;;45.83;42.70;;;;;;;5.50;100.00;102729.09;2006369;71;32857;-71
2021/11/22 02:25:44;;;;;;;45.80;42.70;;;;;;;5.66;100.00;102728.39;2013211;71;32825;-71
2021/11/22 02:31:30;;;;;;;47.47;44.57;;;;;;;5.57;100.00;102735.99;2002554;71;32803;-71
2021/11/22 02:37:15;;;;;;;48.70;45.80;;;;;;;5.61;100.00;102733.67;2011501;70;32846;-71
2021/11/22 02:42:59;;;;;;;46.10;43.07;;;;;;;5.54;100.00;102737.80;1998627;71;32837;-72
2021/11/22 02:48:43;;;;;;;46.20;43.37;;;;;;;5.48;100.00;102751.86;2013106;71;33418;-72
2021/11/22 02:54:27;;;;;;;46.27;43.07;;;;;;;5.60;100.00;102748.02;2013046;71;33360;-70
2021/11/22 03:00:15;;;;;;;46.87;44.03;;;;;;;5.35;100.00;102749.56;2004431;71;32865;-71
2021/11/22 03:06:09;;;;;;;47.33;44.33;;;;;;;5.37;100.00;102756.59;1994913;71;33328;-71
2021/11/22 03:11:54;;;;;;;47.70;44.63;;;;;;;5.32;100.00;102763.23;2000628;71;32787;-72
2021/11/22 03:17:39;;;;;;;48.00;45.07;;;;;;;5.35;100.00;102757.83;2000153;71;32833;-72
2021/11/22 03:23:26;;;;;;;44.00;41.23;;;;;;;5.34;100.00;102763.90;2014900;71;32976;-71
2021/11/22 03:29:11;;;;;;;46.67;43.37;;;;;;;5.39;100.00;102768.80;2000485;71;32924;-71
2021/11/22 03:34:56;;;;;;;46.67;43.57;;;;;;;5.29;100.00;102783.46;1998932;71;32774;-72
2021/11/22 03:40:43;;;;;;;46.07;42.83;;;;;;;5.23;100.00;102790.62;2016594;71;32840;-71
2021/11/22 03:46:28;;;;;;;47.37;44.17;;;;;;;5.25;100.00;102792.66;1991605;71;32897;-71
2021/11/22 03:52:12;;;;;;;45.90;42.87;;;;;;;5.22;100.00;102784.78;2011440;71;32923;-71
2021/11/22 03:57:56;;;;;;;45.63;42.50;;;;;;;5.43;100.00;102792.96;2014984;71;32910;-71
2021/11/22 04:03:40;;;;;;;46.53;43.13;;;;;;;5.40;100.00;102803.55;1998503;71;33005;-71
2021/11/22 04:09:24;;;;;;;48.80;45.40;;;;;;;5.46;100.00;102816.00;2004165;71;33344;-71
2021/11/22 04:15:08;;;;;;;46.17;43.17;;;;;;;5.43;100.00;102821.08;2016690;71;33410;-72
2021/11/22 04:20:53;;;;;;;44.70;41.53;;;;;;;5.56;100.00;102829.94;2002190;71;33424;-71
2021/11/22 04:26:39;;;;;;;45.33;42.47;;;;;;;5.59;100.00;102837.80;2016548;71;32906;-72
2021/11/22 04:32:23;;;;;;;48.07;44.70;;;;;;;5.46;100.00;102846.33;2000089;71;33475;-71
2021/11/22 04:38:11;;;;;;;46.13;43.07;;;;;;;5.54;100.00;102856.33;2009503;71;33018;-70
2021/11/22 04:43:55;;;;;;;46.40;43.10;;;;;;;5.50;100.00;102855.89;2015054;71;33407;-72
2021/11/22 04:49:39;;;;;;;46.20;43.40;;;;;;;5.37;100.00;102875.09;2014802;71;33302;-74
2021/11/22 04:55:25;;;;;;;47.07;43.87;;;;;;;5.37;100.00;102881.98;2002425;71;32928;-71
2021/11/22 05:01:09;;;;;;;48.40;45.20;;;;;;;5.36;100.00;102872.00;1967371;71;39505;-72
2021/11/22 05:06:53;;;;;;;47.20;44.00;;;;;;;5.37;100.00;102881.98;2012983;71;32884;-71
2021/11/22 05:12:38;;;;;;;45.73;42.30;;;;;;;5.63;100.00;102877.17;2016660;71;32857;-72
2021/11/22 05:18:22;;;;;;;45.83;42.73;;;;;;;5.65;100.00;102877.80;1995352;71;32797;-71
2021/11/22 05:24:07;;;;;;;45.60;42.20;;;;;;;5.63;100.00;102885.44;1965356;72;33144;-71
2021/11/22 05:29:52;;;;;;;44.00;41.10;;;;;;;5.63;100.00;102896.98;2011786;71;32768;-71
2021/11/22 05:35:37;;;;;;;44.20;41.30;;;;;;;5.56;100.00;102890.06;2009237;71;32995;-72
2021/11/22 05:41:21;;;;;;;44.97;41.90;;;;;;;5.53;100.00;102896.48;2006259;71;32832;-71
2021/11/22 05:47:07;;;;;;;43.37;40.50;;;;;;;5.54;100.00;102896.82;2002204;71;33350;-71
2021/11/22 05:52:54;;;;;;;43.77;40.93;;;;;;;5.45;100.00;102903.88;2011412;71;32834;-71
2021/11/22 05:58:38;;;;;;;49.20;45.70;;;;;;;5.04;100.00;102901.53;2004570;71;33368;-70
2021/11/22 06:04:23;;;;;;;45.50;42.20;;;;;;;4.70;100.00;102902.80;2013291;71;33308;-72
2021/11/22 06:10:09;;;;;;;45.27;42.27;;;;;;;4.98;100.00;102911.44;2002452;70;32831;-72
2021/11/22 06:15:53;;;;;;;45.53;42.23;;;;;;;4.38;100.00;102905.51;1940857;74;32992;-72
2021/11/22 06:21:41;;;;;;;46.87;43.47;;;;;;;4.36;100.00;102924.98;2011073;71;32914;-71
2021/11/22 06:27:34;;;;;;;46.37;43.07;;;;;;;4.19;100.00;102942.76;1994937;71;32777;-73
2021/11/22 06:33:24;;;;;;;44.77;41.27;;;;;;;4.30;100.00;102942.77;2014763;70;32844;-73
2021/11/22 06:39:13;;;;;;;45.43;42.13;;;;;;;4.38;100.00;102953.14;2007936;70;33011;-71
2021/11/22 06:45:02;;;;;;;45.60;42.30;;;;;;;4.44;100.00;102962.02;1964386;72;32983;-73
2021/11/22 06:50:51;;;;;;;47.47;44.07;;;;;;;4.46;100.00;102976.41;2016503;71;32877;-72
2021/11/22 06:56:44;;;;;;;47.40;43.63;;;;;;;4.15;100.00;102984.03;1996509;71;32834;-72
2021/11/22 07:02:25;;;;;;;47.87;44.77;;;;;;;4.02;100.00;102993.51;2016305;71;32967;-72
2021/11/22 07:08:10;;;;;;;48.93;45.43;;;;;;;4.12;100.00;103012.79;2016382;71;32992;-71
2021/11/22 07:13:56;;;;;;;48.37;45.07;;;;;;;4.16;100.00;103020.13;2016718;71;33364;-72
2021/11/22 07:19:41;;;;;;;47.37;44.17;;;;;;;4.21;100.00;103021.80;2013286;70;33434;-74
2021/11/22 07:25:29;;;;;;;46.87;43.67;;;;;;;4.10;100.00;103041.02;2014925;71;33440;-73
2021/11/22 07:31:14;;;;;;;46.50;43.13;;;;;;;3.98;100.00;103047.17;2008596;71;32884;-73
2021/11/22 07:37:05;;;;;;;47.37;43.83;;;;;;;4.51;100.00;103074.91;2014796;71;32841;-70
2021/11/22 07:42:50;;;;;;;45.67;42.27;;;;;;;4.64;100.00;103076.98;2009391;70;33401;-72
2021/11/22 07:51:44;;;;;;;46.50;43.00;;;;;;;4.84;100.00;103108.37;2037816;69;32636;-71
2021/11/22 07:54:15;;;;;;;46.40;43.10;;;;;;;4.93;100.00;103114.11;1941128;73;26497;-72
2021/11/22 07:56:47;;;;;;;44.50;40.90;;;;;;;5.00;100.00;103117.82;2012161;70;26280;-71
2021/11/22 07:59:22;;;;;;;44.20;40.83;;;;;;;5.08;100.00;103116.33;2016752;70;26259;-71
2021/11/22 08:01:52;;;;;;;45.60;42.00;;;;;;;5.19;100.00;103114.44;2005411;70;26196;-72
2021/11/22 08:04:24;;;;;;;46.10;42.80;;;;;;;5.09;100.00;103122.17;2009466;70;26207;-71
2021/11/22 08:06:58;;;;;;;45.17;42.03;;;;;;;5.19;100.00;103124.59;2003380;70;26637;-70
2021/11/22 08:09:30;;;;;;;45.17;41.87;;;;;;;5.27;100.00;103126.71;2021381;70;26670;-70
2021/11/22 08:12:14;;;;;;;48.40;45.10;;;;;;;5.30;100.00;103122.21;2005165;70;26207;-70
2021/11/22 08:14:35;;;;;;;47.17;43.90;;;;;;;5.35;100.00;103125.73;2007977;70;26217;-70
2021/11/22 08:17:08;;;;;;;46.60;43.57;;;;;;;5.44;100.00;103134.20;2030336;70;26672;-73
2021/11/22 08:19:40;;;;;;;47.13;43.90;;;;;;;5.48;100.00;103135.52;1943544;73;26322;-70
2021/11/22 08:22:10;;;;;;;45.67;42.40;;;;;;;5.48;100.00;103134.14;1938499;73;26219;-72
2021/11/22 08:24:40;;;;;;;46.57;43.50;;;;;;;5.66;100.00;103139.21;1931119;74;26212;-71
2021/11/22 08:27:11;;;;;;;47.93;45.00;;;;;;;5.70;100.00;103136.39;1931807;74;26194;-72
2021/11/22 08:29:41;;;;;;;48.57;45.57;;;;;;;5.69;100.00;103139.66;1931703;74;26647;-71
2021/11/22 08:32:11;;;;;;;46.70;43.37;;;;;;;5.78;100.00;103138.48;1931852;74;26297;-72
2021/11/22 08:37:55;;;;;;;47.50;44.03;;;;;;;5.91;100.00;103138.64;2015231;70;32852;-71
2021/11/22 08:43:40;;;;;;;47.10;43.80;;;;;;;6.05;100.00;103136.86;2003874;71;32950;-74
2021/11/22 08:49:24;;;;;;;47.67;44.13;;;;;;;6.20;100.00;103135.40;2018359;71;32842;-74
2021/11/22 08:55:09;;;;;;;44.40;41.20;;;;;;;6.34;100.00;103151.84;2007596;71;33012;-72
2021/11/22 09:00:54;;;;;;;46.93;43.63;;;;;;;6.52;100.00;103160.14;2009427;71;32879;-72
2021/11/22 09:06:38;;;;;;;41.97;38.57;;;;;;;6.61;100.00;103161.17;2002167;71;32943;-71
2021/11/22 09:12:23;;;;;;;43.63;40.43;;;;;;;6.77;100.00;103166.36;2009406;71;33440;-70
2021/11/22 09:18:07;;;;;;;46.20;42.87;;;;;;;6.86;100.00;103164.28;2016591;71;32925;-71
2021/11/22 09:23:52;;;;;;;44.97;41.70;;;;;;;6.95;100.00;103171.34;1980230;71;33484;-72
2021/11/22 09:29:39;;;;;;;46.67;43.27;;;;;;;6.81;100.00;103176.47;1991584;71;32866;-72
2021/11/22 09:35:26;;;;;;;41.73;38.80;;;;;;;6.96;100.00;103181.88;2004281;71;32790;-72
2021/11/22 09:41:12;;;;;;;42.93;39.57;;;;;;;7.42;100.00;103189.84;2006185;71;32871;-71
2021/11/22 09:46:59;;;;;;;44.20;40.93;;;;;;;7.59;100.00;103188.41;2018402;71;32860;-72
2021/11/22 09:52:43;;;;;;;42.10;38.97;;;;;;;7.82;100.00;103185.28;2011444;71;32932;-72
2021/11/22 09:58:27;;;;;;;41.47;38.50;;;;;;;7.91;100.00;103185.94;1991548;71;32771;-71
2021/11/22 10:04:18;;;;;;;40.83;37.93;;;;;;;8.00;100.00;103179.14;2011866;71;33331;-72
2021/11/22 10:10:06;;;;;;;42.53;39.33;;;;;;;8.17;100.00;103186.79;2007986;71;33302;-72
2021/11/22 10:15:51;;;;;;;40.57;37.70;;;;;;;8.30;100.00;103197.61;2018544;71;32934;-71
2021/11/22 10:21:40;;;;;;;40.47;37.57;;;;;;;8.41;100.00;103186.73;2000681;71;33361;-72
2021/11/22 10:27:38;;;;;;;40.83;37.87;;;;;;;8.50;100.00;103184.06;2016687;71;32964;-74
2021/11/22 10:33:38;;;;;;;39.27;36.67;;;;;;;8.62;100.00;103182.87;2011550;71;32814;-72
2021/11/22 10:39:23;;;;;;;39.33;36.67;;;;;;;8.73;100.00;103179.42;2013150;71;32835;-73
2021/11/22 10:45:08;;;;;;;38.90;36.20;;;;;;;8.70;100.00;103166.02;2011712;71;33251;-72
2021/11/22 10:51:12;;;;;;;39.13;36.30;;;;;;;8.89;100.00;103166.52;2009564;71;32916;-72
2021/11/22 10:56:57;;;;;;;38.37;35.73;;;;;;;9.00;100.00;103173.29;2013150;71;33388;-72
2021/11/22 11:02:42;;;;;;;38.93;35.63;;;;;;;9.13;100.00;103173.25;2004530;71;32877;-72
2021/11/22 11:08:32;;;;;;;39.90;36.97;;;;;;;9.26;100.00;103162.10;2014768;71;32932;-72
2021/11/22 11:14:26;;;;;;;37.00;34.80;;;;;;;9.28;100.00;103164.13;2010070;71;33257;-71
2021/11/22 11:20:15;;;;;;;37.23;34.60;;;;;;;9.31;100.00;103157.28;2015196;71;33389;-73
2021/11/22 11:25:59;;;;;;;35.70;33.07;;;;;;;9.47;100.00;103155.37;2000755;71;32832;-71
2021/11/22 11:31:45;;;;;;;36.00;33.40;;;;;;;9.50;100.00;103144.69;2016654;71;32909;-72
2021/11/22 11:37:43;;;;;;;36.40;34.00;;;;;;;9.58;100.00;103152.74;2004235;71;32895;-73
2021/11/22 11:43:52;;;;;;;36.70;34.20;;;;;;;9.72;100.00;103137.39;2004037;71;32898;-71
2021/11/22 11:46:37;;;;;;;35.00;32.60;;;;;;;9.74;100.00;103143.59;1983964;72;26204;-71
2021/11/22 11:52:26;;;;;;;37.40;34.63;;;;;;;9.94;100.00;103136.81;2009644;71;33319;-71
2021/11/22 11:58:24;;;;;;;37.83;35.07;;;;;;;9.84;100.00;103139.80;2015265;71;32862;-72
2021/11/22 12:04:13;;;;;;;35.47;32.70;;;;;;;9.97;100.00;103146.07;2016780;71;32930;-72
2021/11/22 12:10:17;;;;;;;34.77;32.30;;;;;;;9.90;100.00;103148.59;2006134;71;32934;-72
2021/11/22 12:16:02;;;;;;;34.97;32.47;;;;;;;9.96;100.00;103137.45;2016663;71;32917;-76
2021/11/22 12:21:47;;;;;;;33.20;30.70;;;;;;;10.00;100.00;103133.68;2006161;71;32741;-72
2021/11/22 12:27:39;;;;;;;32.80;30.60;;;;;;;10.00;100.00;103140.09;2015002;71;32980;-71
2021/11/22 12:33:58;;;;;;;32.60;30.33;;;;;;;9.99;100.00;103136.14;2016654;71;32858;-72
2021/11/22 12:40:13;;;;;;;33.60;31.40;;;;;;;10.04;100.00;103132.16;2005745;71;32902;-73
2021/11/22 12:46:04;;;;;;;30.90;28.87;;;;;;;10.18;100.00;103128.77;1998876;71;32771;-73
2021/11/22 12:51:50;;;;;;;32.10;29.60;;;;;;;10.19;100.00;103128.52;2003747;71;33373;-72
2021/11/22 12:57:41;;;;;;;29.67;27.43;;;;;;;10.14;100.00;103121.36;1995224;71;32754;-72
2021/11/22 13:03:53;;;;;;;31.27;28.63;;;;;;;10.26;100.00;103123.77;2006185;71;32924;-71
2021/11/22 13:09:48;;;;;;;30.13;27.90;;;;;;;10.25;100.00;103122.59;2016645;71;32849;-71
2021/11/22 13:15:57;;;;;;;28.30;26.47;;;;;;;10.31;100.00;103120.31;2000614;71;32745;-73
2021/11/22 13:21:47;;;;;;;29.30;27.23;;;;;;;10.34;100.00;103116.53;2011761;70;33357;-72
2021/11/22 13:27:33;;;;;;;28.80;26.80;;;;;;;10.29;100.00;103123.30;2002469;71;32857;-73
2021/11/22 13:33:18;;;;;;;26.57;24.73;;;;;;;10.42;100.00;103120.41;2003337;71;32799;-73
2021/11/22 13:39:15;;;;;;;27.87;26.07;;;;;;;10.36;100.00;103116.28;2012964;71;32882;-73
2021/11/22 13:45:10;;;;;;;29.67;27.47;;;;;;;10.42;100.00;103119.55;2006133;71;32873;-73
2021/11/22 13:50:55;;;;;;;30.87;28.23;;;;;;;10.34;100.00;103122.09;2014931;71;32904;-73
2021/11/22 13:56:42;;;;;;;29.97;28.13;;;;;;;10.45;100.00;103119.94;2016776;71;32938;-75
2021/11/22 14:02:37;;;;;;;30.37;28.37;;;;;;;10.23;100.00;103122.81;2014859;71;32865;-72
2021/11/22 14:08:23;;;;;;;31.10;29.00;;;;;;;10.12;100.00;103124.07;2004388;71;32830;-73
2021/11/22 14:14:21;;;;;;;32.03;29.93;;;;;;;10.20;100.00;103120.50;2008126;71;33263;-71
2021/11/22 14:20:13;;;;;;;31.30;29.00;;;;;;;10.11;100.00;103117.66;2017055;71;32895;-71
2021/11/22 14:26:03;;;;;;;32.43;30.03;;;;;;;10.10;100.00;103117.91;2014814;71;32809;-73
2021/11/22 14:31:58;;;;;;;31.27;29.13;;;;;;;10.08;100.00;103125.06;2006189;71;33347;-74
2021/11/22 14:37:44;;;;;;;30.77;28.80;;;;;;;10.03;100.00;103122.97;2004420;70;32742;-73
2021/11/22 14:43:33;;;;;;;31.90;29.70;;;;;;;10.13;100.00;103131.33;2003894;71;32801;-71
2021/11/22 14:49:19;;;;;;;32.03;29.60;;;;;;;9.97;100.00;103125.24;2009828;71;32763;-71
2021/11/22 14:55:06;;;;;;;32.70;29.90;;;;;;;9.99;100.00;103131.44;2014673;71;32833;-73
2021/11/22 15:00:52;;;;;;;32.13;29.93;;;;;;;9.95;100.00;103139.05;2009420;71;32984;-72
2021/11/22 15:06:40;;;;;;;30.83;28.43;;;;;;;9.83;100.00;103133.92;2013230;71;32790;-72
2021/11/22 15:12:28;;;;;;;32.17;30.07;;;;;;;9.81;100.00;103143.84;1998436;71;32813;-72
2021/11/22 15:18:12;;;;;;;31.80;29.70;;;;;;;9.79;100.00;103152.10;2011307;71;32987;-73
2021/11/22 15:23:56;;;;;;;35.13;32.73;;;;;;;9.55;100.00;103160.66;1962454;72;33011;-72
2021/11/22 15:29:42;;;;;;;35.10;32.37;;;;;;;9.52;100.00;103168.91;2007508;71;32959;-73
2021/11/22 15:35:28;;;;;;;33.60;31.53;;;;;;;9.32;100.00;103168.70;2018535;71;33346;-73
2021/11/22 15:41:13;;;;;;;34.70;32.57;;;;;;;9.30;100.00;103175.84;2008143;71;33258;-70
2021/11/22 15:46:58;;;;;;;35.33;32.93;;;;;;;9.27;100.00;103178.21;1996926;71;32804;-73
2021/11/22 15:52:43;;;;;;;36.53;34.10;;;;;;;9.14;100.00;103191.06;1991653;71;33227;-74
2021/11/22 15:58:29;;;;;;;36.50;33.90;;;;;;;8.92;100.00;103202.11;2016953;71;33460;-71
2021/11/22 16:04:14;;;;;;;36.20;33.63;;;;;;;8.93;100.00;103201.05;2016779;71;32823;-72
2021/11/22 16:10:00;;;;;;;38.00;35.40;;;;;;;8.83;100.00;103199.24;2016734;71;32822;-71
2021/11/22 16:15:44;;;;;;;41.47;38.50;;;;;;;8.40;100.00;103204.94;2016707;71;32853;-72
2021/11/22 16:21:28;;;;;;;42.33;39.30;;;;;;;8.24;100.00;103215.88;2014637;71;32954;-71
2021/11/22 16:27:13;;;;;;;41.53;38.60;;;;;;;8.43;100.00;103218.38;2014994;71;33398;-72
2021/11/22 16:32:59;;;;;;;42.67;39.60;;;;;;;8.16;100.00;103230.80;2011813;71;32920;-71
2021/11/22 16:38:44;;;;;;;43.63;40.67;;;;;;;8.09;100.00;103232.68;2016904;71;32925;-71
2021/11/22 16:44:29;;;;;;;43.77;40.60;;;;;;;7.92;100.00;103239.67;1998541;71;32962;-73
2021/11/22 16:50:17;;;;;;;44.70;41.27;;;;;;;7.86;100.00;103243.82;2025623;70;32912;-76
2021/11/22 16:56:01;;;;;;;44.00;40.30;;;;;;;7.49;100.00;103258.99;1995156;71;32878;-72
2021/11/22 17:01:45;;;;;;;42.93;39.60;;;;;;;7.83;100.00;103262.23;2004475;71;32862;-75
2021/11/22 17:07:30;;;;;;;42.50;39.23;;;;;;;7.65;100.00;103260.90;2016648;71;32905;-75
2021/11/22 17:13:13;;;;;;;44.70;41.50;;;;;;;8.11;100.00;103272.09;2016799;71;32934;-71
2021/11/22 17:18:57;;;;;;;43.20;39.83;;;;;;;7.90;100.00;103278.31;2002161;71;32986;-73
2021/11/22 17:24:44;;;;;;;44.30;40.63;;;;;;;8.11;100.00;103283.69;2018617;71;32992;-73
2021/11/22 17:30:28;;;;;;;43.80;40.80;;;;;;;7.85;100.00;103283.09;2008088;71;33321;-72
2021/11/22 17:36:13;;;;;;;45.03;41.73;;;;;;;7.85;100.00;103284.47;2018533;70;32933;-70
2021/11/22 17:41:58;;;;;;;45.40;41.77;;;;;;;7.80;100.00;103293.92;1991438;71;32758;-71
2021/11/22 17:47:43;;;;;;;46.43;42.90;;;;;;;7.68;100.00;103303.88;2011657;71;32920;-71
2021/11/22 17:53:28;;;;;;;47.70;43.93;;;;;;;7.77;100.00;103308.17;2009231;71;32957;-70
2021/11/22 17:59:13;;;;;;;48.03;44.20;;;;;;;7.67;100.00;103308.55;1998338;71;32832;-71
2021/11/22 18:04:57;;;;;;;48.30;44.90;;;;;;;7.65;100.00;103309.30;1950978;70;102233;-80
2021/11/22 18:10:42;;;;;;;50.47;46.63;;;;;;;7.67;100.00;103313.23;2016538;71;32917;-71
2021/11/22 18:16:28;;;;;;;47.97;44.50;;;;;;;7.66;100.00;103316.52;2009743;71;33308;-71
2021/11/22 18:22:13;;;;;;;48.63;45.07;;;;;;;7.55;100.00;103325.94;2000511;71;32852;-76
2021/11/22 18:28:02;;;;;;;47.93;44.27;;;;;;;7.57;100.00;103326.61;2004648;71;32836;-80
2021/11/22 18:33:47;;;;;;;49.17;45.50;;;;;;;7.39;100.00;103334.05;2018279;71;32967;-73
2021/11/22 18:39:31;;;;;;;48.90;45.03;;;;;;;6.88;100.00;103343.16;2014640;71;32829;-72
2021/11/22 18:45:17;;;;;;;49.13;45.20;;;;;;;7.11;100.00;103340.98;1996899;71;32843;-72
2021/11/22 18:51:02;;;;;;;50.87;47.27;;;;;;;6.61;100.00;103362.77;1996523;71;32912;-74
2021/11/22 18:56:46;;;;;;;49.77;45.83;;;;;;;6.61;100.00;103360.53;1995230;71;32784;-75
2021/11/22 19:02:30;;;;;;;52.77;49.03;;;;;;;6.48;100.00;103372.83;2000771;71;32778;-75
2021/11/22 19:08:18;;;;;;;52.97;49.07;;;;;;;6.50;100.00;103374.88;2007841;71;33433;-74
2021/11/22 19:14:00;;;;;;;52.97;49.30;;;;;;;6.43;100.00;103378.07;2009350;71;32838;-71
2021/11/22 19:19:46;;;;;;;54.20;50.47;;;;;;;6.34;100.00;103388.38;2000920;71;32798;-71
2021/11/22 19:25:31;;;;;;;51.07;47.20;;;;;;;6.27;100.00;103397.98;1995291;70;32854;-73
2021/11/22 19:31:15;;;;;;;51.57;47.13;;;;;;;6.12;100.00;103403.22;2011477;71;33394;-74
2021/11/22 19:36:58;;;;;;;54.47;50.50;;;;;;;5.97;100.00;103410.65;2016705;71;32826;-77
2021/11/22 19:42:44;;;;;;;53.93;49.53;;;;;;;5.87;100.00;103409.56;2013425;71;33303;-76
2021/11/22 19:48:28;;;;;;;51.63;47.43;;;;;;;5.94;100.00;103416.04;2013392;71;32768;-75
2021/11/22 19:54:12;;;;;;;53.37;49.07;;;;;;;5.90;100.00;103419.68;2004631;71;33322;-76
2021/11/22 19:59:56;;;;;;;49.80;45.83;;;;;;;5.62;100.00;103426.03;2018537;71;33020;-72
2021/11/22 20:05:40;;;;;;;51.77;47.40;;;;;;;5.64;100.00;103433.61;1985169;70;33275;-75
2021/11/22 20:11:24;;;;;;;50.43;46.27;;;;;;;5.61;100.00;103438.96;1991841;71;32756;-74
2021/11/22 20:17:08;;;;;;;49.83;45.97;;;;;;;5.69;100.00;103442.17;2010429;71;33490;-70
2021/11/22 20:22:56;;;;;;;50.80;46.80;;;;;;;5.98;100.00;103458.75;2027916;70;32956;-69
2021/11/22 20:28:42;;;;;;;50.47;46.37;;;;;;;5.98;100.00;103462.89;1995288;71;32833;-68
2021/11/22 20:34:27;;;;;;;49.20;45.20;;;;;;;5.77;100.00;103469.66;2016841;71;32833;-68
2021/11/22 20:40:13;;;;;;;48.53;44.40;;;;;;;6.10;100.00;103475.67;2000924;71;33286;-74
2021/11/22 20:46:01;;;;;;;53.37;49.37;;;;;;;6.02;100.00;103481.29;2016958;71;33632;-73
2021/11/22 20:51:46;;;;;;;48.80;44.83;;;;;;;5.87;100.00;103482.66;2016924;71;32839;-72
2021/11/22 20:57:30;;;;;;;53.40;49.10;;;;;;;5.87;100.00;103493.69;1991664;71;32825;-74
2021/11/22 21:03:15;;;;;;;50.10;45.83;;;;;;;5.73;100.00;103494.53;1995214;71;33545;-70
2021/11/22 21:08:59;;;;;;;51.60;47.23;;;;;;;5.91;100.00;103493.64;2016661;71;33435;-76
2021/11/22 21:14:43;;;;;;;49.53;45.77;;;;;;;6.00;100.00;103501.30;2016995;71;32852;-78
2021/11/22 21:20:29;;;;;;;52.47;48.17;;;;;;;5.86;100.00;103511.28;2012236;71;32798;-79
2021/11/22 21:26:14;;;;;;;55.37;50.87;;;;;;;5.58;100.00;103516.55;1995312;71;32778;-74
2021/11/22 21:31:58;;;;;;;55.70;51.17;;;;;;;5.36;100.00;103511.93;2005634;71;32962;-73
2021/11/22 21:37:44;;;;;;;56.97;52.00;;;;;;;5.26;100.00;103525.95;1996592;71;33378;-76
2021/11/22 21:43:33;;;;;;;55.50;51.00;;;;;;;5.32;100.00;103529.36;2012049;71;33224;-76
2021/11/22 21:49:17;;;;;;;57.80;53.07;;;;;;;5.05;100.00;103532.66;2004373;71;32913;-71
2021/11/22 21:55:01;;;;;;;55.50;50.97;;;;;;;5.07;100.00;103526.47;2014874;71;32954;-73
2021/11/22 22:00:46;;;;;;;56.57;52.27;;;;;;;4.96;100.00;103536.55;2000721;71;33230;-74
2021/11/22 22:06:31;;;;;;;55.37;51.13;;;;;;;4.96;100.00;103546.19;2016582;71;32941;-72
2021/11/22 22:12:23;;;;;;;51.57;47.37;;;;;;;4.96;100.00;103551.14;2006128;71;32777;-75
2021/11/22 22:18:05;;;;;;;53.87;49.37;;;;;;;5.01;100.00;103550.09;2016595;71;32818;-77
2021/11/22 22:23:53;;;;;;;50.53;46.47;;;;;;;4.91;100.00;103543.11;1980250;72;32990;-72
2021/11/22 22:29:39;;;;;;;53.83;49.57;;;;;;;4.79;100.00;103546.78;2006347;71;32920;-74
2021/11/22 22:35:24;;;;;;;53.80;49.57;;;;;;;4.79;100.00;103555.59;2002287;71;32869;-75
2021/11/22 22:41:09;;;;;;;54.33;50.13;;;;;;;4.76;100.00;103559.55;1998882;71;32850;-75
2021/11/22 22:46:54;;;;;;;57.97;53.80;;;;;;;4.66;100.00;103556.17;2016504;71;32821;-75
2021/11/22 22:52:39;;;;;;;60.93;56.20;;;;;;;4.55;100.00;103564.81;2015144;71;32876;-77
2021/11/22 22:58:25;;;;;;;61.03;56.43;;;;;;;4.69;100.00;103567.34;2012918;71;32807;-74
2021/11/22 23:04:15;;;;;;;64.77;59.60;;;;;;;4.57;100.00;103564.99;2019923;71;33406;-77
2021/11/22 23:09:59;;;;;;;61.53;56.70;;;;;;;4.49;100.00;103572.43;2009496;71;32904;-76
2021/11/22 23:15:45;;;;;;;63.77;58.27;;;;;;;4.49;100.00;103575.18;2002736;71;32835;-76
2021/11/22 23:21:32;;;;;;;63.53;58.63;;;;;;;4.43;100.00;103571.75;2009400;71;32860;-74
2021/11/22 23:27:17;;;;;;;58.67;53.87;;;;;;;4.49;100.00;103578.77;2014775;71;32905;-75
2021/11/22 23:33:02;;;;;;;57.60;52.87;;;;;;;4.52;100.00;103583.94;2011607;71;32753;-75
2021/11/22 23:38:46;;;;;;;59.20;54.40;;;;;;;4.21;100.00;103584.38;1997095;71;32861;-75
2021/11/22 23:44:31;;;;;;;59.87;54.50;;;;;;;4.10;100.00;103588.38;2000698;71;32740;-76
2021/11/22 23:50:18;;;;;;;58.30;53.57;;;;;;;4.26;100.00;103584.72;2011108;71;32902;-74
2021/11/22 23:56:02;;;;;;;60.87;55.93;;;;;;;4.45;100.00;103584.84;2013437;71;33252;-75
